createdAt,value
2018-06-24T00:01:51.067Z,99648.11
2018-06-24T00:04:19.419Z,99609.60
2018-06-24T00:06:47.882Z,99651.39
2018-06-24T00:09:17.164Z,99648.59
2018-06-24T00:11:45.501Z,99612.20
2018-06-24T00:14:13.928Z,99645.90
2018-06-24T00:16:42.996Z,99647.30
2018-06-24T00:19:11.534Z,99639.03
2018-06-24T00:21:39.898Z,99626.33
2018-06-24T00:24:08.763Z,99632.98
2018-06-24T00:26:37.187Z,99630.55
2018-06-24T00:29:05.485Z,99628.91
2018-06-24T00:31:34.243Z,99624.43
2018-06-24T00:34:02.947Z,99626.09
2018-06-24T00:36:31.197Z,99623.75
2018-06-24T00:39:00.036Z,99616.50
2018-06-24T00:41:28.472Z,99610.95
2018-06-24T00:43:56.931Z,99607.41
2018-06-24T00:46:25.869Z,99609.42
2018-06-24T00:48:54.472Z,99614.00
2018-06-24T00:51:22.967Z,99611.70
2018-06-24T00:53:51.650Z,99611.93
2018-06-24T00:56:19.884Z,99599.09
2018-06-24T00:58:48.732Z,99578.59
2018-06-24T01:01:17.578Z,99608.22
2018-06-24T01:03:45.953Z,99609.13
2018-06-24T01:06:14.296Z,99593.91
2018-06-24T01:08:43.012Z,99593.81
2018-06-24T01:11:13.692Z,99598.00
2018-06-24T01:13:42.711Z,99595.44
2018-06-24T01:16:11.167Z,99592.12
2018-06-24T01:18:39.604Z,99586.66
2018-06-24T01:21:08.363Z,99585.12
2018-06-24T01:23:36.877Z,99579.92
2018-06-24T01:26:05.852Z,99581.94
2018-06-24T01:28:34.185Z,99588.03
2018-06-24T01:31:02.685Z,99580.41
2018-06-24T01:33:31.624Z,99578.37
2018-06-24T01:36:00.042Z,99577.23
2018-06-24T01:38:28.740Z,99572.54
2018-06-24T01:40:57.689Z,99574.17
2018-06-24T01:43:25.900Z,99584.34
2018-06-24T01:45:54.363Z,99570.62
2018-06-24T01:48:22.863Z,99573.03
2018-06-24T01:50:53.551Z,99575.34
2018-06-24T01:53:23.644Z,99572.77
2018-06-24T01:55:54.166Z,99568.45
2018-06-24T01:58:22.751Z,99569.84
2018-06-24T02:00:51.609Z,99563.64
2018-06-24T02:03:20.283Z,99561.45
2018-06-24T02:05:48.536Z,99565.27
2018-06-24T02:08:17.412Z,99560.94
2018-06-24T02:10:45.536Z,99581.14
2018-06-24T02:13:13.976Z,99557.20
2018-06-24T02:15:42.692Z,99558.25
2018-06-24T02:18:10.979Z,99556.69
2018-06-24T02:20:39.184Z,99550.19
2018-06-24T02:23:07.852Z,99546.48
2018-06-24T02:25:36.489Z,99542.00
2018-06-24T02:28:04.872Z,99552.05
2018-06-24T02:30:33.304Z,99545.29
2018-06-24T02:33:01.798Z,99542.66
2018-06-24T02:35:30.264Z,99542.88
2018-06-24T02:37:58.684Z,99543.98
2018-06-24T02:40:26.943Z,99550.85
2018-06-24T02:42:55.734Z,99545.08
2018-06-24T02:45:24.094Z,99539.78
2018-06-24T02:47:52.457Z,99508.59
2018-06-24T02:50:21.368Z,99536.25
2018-06-24T02:52:49.709Z,99531.94
2018-06-24T02:55:18.400Z,99540.67
2018-06-24T02:57:47.041Z,99542.63
2018-06-24T03:00:15.379Z,99476.77
2018-06-24T03:02:43.805Z,99537.66
2018-06-24T03:05:13.451Z,99543.14
2018-06-24T03:07:42.112Z,99535.14
2018-06-24T03:10:10.534Z,99533.48
2018-06-24T03:12:39.143Z,99538.45
2018-06-24T03:15:07.611Z,99537.97
2018-06-24T03:17:35.691Z,99539.03
2018-06-24T03:20:04.784Z,99531.55
2018-06-24T03:22:33.145Z,99535.87
2018-06-24T03:25:01.580Z,99528.01
2018-06-24T03:27:30.279Z,99524.98
2018-06-24T03:29:58.730Z,99527.67
2018-06-24T03:32:27.008Z,99513.59
2018-06-24T03:34:55.744Z,99536.81
2018-06-24T03:37:24.146Z,99521.20
2018-06-24T03:39:52.549Z,99533.22
2018-06-24T03:42:21.440Z,99509.09
2018-06-24T03:44:49.749Z,99525.58
2018-06-24T03:47:18.079Z,99526.06
2018-06-24T03:49:46.884Z,99529.71
2018-06-24T03:52:15.207Z,99539.62
2018-06-24T03:54:43.270Z,99535.44
2018-06-24T03:57:11.808Z,99515.84
2018-06-24T03:59:39.972Z,99536.34
2018-06-24T04:02:08.332Z,99530.48
2018-06-24T04:04:37.206Z,99535.98
2018-06-24T04:07:05.608Z,99502.61
2018-06-24T04:09:33.737Z,99499.09
2018-06-24T04:12:02.196Z,99542.08
2018-06-24T04:14:30.660Z,99535.66
2018-06-24T04:16:59.003Z,99529.22
2018-06-24T04:19:27.462Z,99504.89
2018-06-24T04:21:55.872Z,99526.58
2018-06-24T04:24:23.933Z,99535.37
2018-06-24T04:26:52.648Z,99534.89
2018-06-24T04:29:20.928Z,99541.91
2018-06-24T04:31:49.034Z,99501.32
2018-06-24T04:34:17.942Z,99535.61
2018-06-24T04:36:46.160Z,99513.99
2018-06-24T04:39:14.580Z,99537.22
2018-06-24T04:41:43.450Z,99542.32
2018-06-24T04:44:11.484Z,99509.92
2018-06-24T04:46:40.081Z,99538.83
2018-06-24T04:49:08.458Z,99551.41
2018-06-24T04:51:36.748Z,99530.98
2018-06-24T04:54:05.561Z,99548.41
2018-06-24T04:56:33.980Z,99533.98
2018-06-24T04:59:02.859Z,99538.92
2018-06-24T05:01:31.606Z,99535.02
2018-06-24T05:04:00.045Z,99540.77
2018-06-24T05:06:28.949Z,99551.80
2018-06-24T05:08:57.574Z,99550.27
2018-06-24T05:11:26.164Z,99515.03
2018-06-24T05:13:54.706Z,99521.60
2018-06-24T05:16:23.063Z,99547.68
2018-06-24T05:18:51.763Z,99544.92
2018-06-24T05:21:21.105Z,99536.88
2018-06-24T05:23:49.478Z,99551.69
2018-06-24T05:26:18.091Z,99545.99
2018-06-24T05:28:46.324Z,99529.20
2018-06-24T05:31:15.158Z,99538.91
2018-06-24T05:33:44.239Z,99530.89
2018-06-24T05:36:12.541Z,99547.31
2018-06-24T05:38:40.717Z,99519.42
2018-06-24T05:41:09.268Z,99553.09
2018-06-24T05:43:37.821Z,99548.39
2018-06-24T05:46:06.065Z,99547.25
2018-06-24T05:48:34.848Z,99548.55
2018-06-24T05:51:03.391Z,99549.58
2018-06-24T05:53:31.643Z,99509.50
2018-06-24T05:56:00.184Z,99534.92
2018-06-24T05:58:29.029Z,99550.44
2018-06-24T06:00:59.912Z,99557.71
2018-06-24T06:03:28.257Z,99554.97
2018-06-24T06:05:56.968Z,99552.78
2018-06-24T06:08:25.044Z,99519.78
2018-06-24T06:13:43.396Z,99535.31
2018-06-24T06:16:11.894Z,99552.48
2018-06-24T06:18:40.563Z,99518.08
2018-06-24T06:21:09.378Z,99531.08
2018-06-24T06:23:38.912Z,99561.73
2018-06-24T06:26:07.924Z,99541.83
2018-06-24T06:28:37.260Z,99524.42
2018-06-24T06:31:06.129Z,99556.80
2018-06-24T06:33:34.509Z,99532.37
2018-06-24T06:36:03.330Z,99556.92
2018-06-24T06:38:31.833Z,99551.48
2018-06-24T06:41:00.819Z,99557.16
2018-06-24T06:43:33.731Z,99556.59
2018-06-24T06:46:03.574Z,99519.41
2018-06-24T06:48:31.761Z,99557.11
2018-06-24T06:51:02.966Z,99564.31
2018-06-24T06:53:32.080Z,99530.63
2018-06-24T06:56:01.537Z,99472.53
2018-06-24T06:58:30.751Z,99560.50
2018-06-24T07:01:01.600Z,99565.33
2018-06-24T07:03:29.718Z,99569.61
2018-06-24T07:06:00.808Z,99568.94
2018-06-24T07:08:29.095Z,99564.12
2018-06-24T07:10:57.199Z,99567.31
2018-06-24T07:13:26.431Z,99570.19
2018-06-24T07:15:56.881Z,99558.67
2018-06-24T07:18:30.901Z,99563.78
2018-06-24T07:21:00.609Z,99557.33
2018-06-24T07:23:29.616Z,99460.63
2018-06-24T07:26:01.819Z,99528.92
2018-06-24T07:28:32.034Z,99475.83
2018-06-24T07:31:00.539Z,99546.34
2018-06-24T07:33:28.789Z,99552.31
2018-06-24T07:35:57.460Z,99543.80
2018-06-24T07:38:25.519Z,99543.89
2018-06-24T07:40:53.657Z,99552.09
2018-06-24T07:43:22.701Z,99559.66
2018-06-24T07:45:50.739Z,99563.62
2018-06-24T07:48:19.179Z,99557.49
2018-06-24T07:50:47.897Z,99528.96
2018-06-24T07:53:16.578Z,99560.67
2018-06-24T07:55:47.024Z,99528.42
2018-06-24T07:58:15.513Z,99550.56
2018-06-24T08:00:45.900Z,99539.88
2018-06-24T08:03:14.984Z,99570.42
2018-06-24T08:05:46.293Z,99558.93
2018-06-24T08:08:15.314Z,99565.30
2018-06-24T08:10:43.402Z,99562.50
2018-06-24T08:13:12.458Z,99553.85
2018-06-24T08:15:40.539Z,99543.37
2018-06-24T08:18:08.604Z,99570.61
2018-06-24T08:20:36.888Z,99559.87
2018-06-24T08:23:05.374Z,99555.93
2018-06-24T08:25:33.781Z,99548.77
2018-06-24T08:28:01.859Z,99562.98
2018-06-24T08:30:29.941Z,99546.61
2018-06-24T08:32:58.858Z,99570.88
2018-06-24T08:35:26.944Z,99565.47
2018-06-24T08:37:55.036Z,99568.64
2018-06-24T08:40:23.670Z,99571.70
2018-06-24T08:42:52.377Z,99448.80
2018-06-24T08:45:24.246Z,99576.92
2018-06-24T08:47:53.004Z,99530.63
2018-06-24T08:50:22.003Z,99575.78
2018-06-24T08:52:50.140Z,99571.70
2018-06-24T08:55:18.296Z,99554.02
2018-06-24T08:57:47.489Z,99573.34
2018-06-24T09:00:17.326Z,99579.16
2018-06-24T09:02:46.009Z,99573.09
2018-06-24T09:05:16.394Z,99478.11
2018-06-24T09:07:45.429Z,99576.03
2018-06-24T09:10:19.437Z,99580.38
2018-06-24T09:12:48.629Z,99579.10
2018-06-24T09:15:16.876Z,99580.02
2018-06-24T09:17:45.431Z,99577.84
2018-06-24T09:20:13.448Z,99567.11
2018-06-24T09:22:41.707Z,99578.11
2018-06-24T09:25:10.027Z,99570.33
2018-06-24T09:27:39.019Z,99567.47
2018-06-24T09:30:09.210Z,99570.45
2018-06-24T09:32:37.636Z,99567.02
2018-06-24T09:35:05.903Z,99567.75
2018-06-24T09:37:34.210Z,99568.73
2018-06-24T09:40:02.416Z,99546.02
2018-06-24T09:42:30.492Z,99558.09
2018-06-24T09:44:58.586Z,99556.44
2018-06-24T09:47:27.044Z,99544.17
2018-06-24T09:49:55.124Z,99547.88
2018-06-24T09:52:23.273Z,99543.05
2018-06-24T09:54:51.572Z,99549.38
2018-06-24T09:57:19.718Z,99545.23
2018-06-24T09:59:48.281Z,99549.11
2018-06-24T10:02:16.669Z,99555.19
2018-06-24T10:04:44.829Z,99553.62
2018-06-24T10:07:14.975Z,99553.39
2018-06-24T10:09:43.571Z,99542.02
2018-06-24T10:12:12.552Z,99535.17
2018-06-24T10:14:40.635Z,99541.21
2018-06-24T10:17:09.336Z,99544.95
2018-06-24T10:19:37.653Z,99545.82
2018-06-24T10:22:05.705Z,99547.73
2018-06-24T10:24:34.252Z,99549.64
2018-06-24T10:27:02.776Z,99552.81
2018-06-24T10:29:30.938Z,99547.09
2018-06-24T10:31:59.549Z,99549.88
2018-06-24T10:34:27.685Z,99546.23
2018-06-24T10:36:55.841Z,99539.71
2018-06-24T10:39:23.948Z,99542.75
2018-06-24T10:41:52.062Z,99540.23
2018-06-24T10:44:20.753Z,99531.69
2018-06-24T10:46:49.016Z,99533.45
2018-06-24T10:49:17.260Z,99530.28
2018-06-24T10:51:45.766Z,99524.89
2018-06-24T10:54:13.886Z,99530.31
2018-06-24T10:56:42.506Z,99524.61
2018-06-24T10:59:11.080Z,99442.13
2018-06-24T11:01:39.196Z,99525.08
2018-06-24T11:04:07.433Z,99524.10
2018-06-24T11:06:36.407Z,99518.70
2018-06-24T11:09:07.588Z,99519.78
2018-06-24T11:11:35.963Z,99522.00
2018-06-24T11:14:05.230Z,99506.91
2018-06-24T11:16:33.630Z,99516.05
2018-06-24T11:19:02.144Z,99517.12
2018-06-24T11:21:30.996Z,99519.39
2018-06-24T11:23:59.213Z,99495.73
2018-06-24T11:26:27.423Z,99520.03
2018-06-24T11:28:56.056Z,99513.55
2018-06-24T11:31:25.415Z,99511.23
2018-06-24T11:33:53.661Z,99503.77
2018-06-24T11:36:22.619Z,99506.22
2018-06-24T11:38:52.071Z,99506.73
2018-06-24T11:41:20.468Z,99504.66
2018-06-24T11:43:48.657Z,99458.91
2018-06-24T11:46:17.121Z,99499.14
2018-06-24T11:48:45.704Z,99500.14
2018-06-24T11:51:13.879Z,99497.88
2018-06-24T11:53:41.999Z,99492.92
2018-06-24T11:56:10.059Z,99498.16
2018-06-24T11:58:38.576Z,99492.52
2018-06-24T12:01:06.803Z,99492.56
2018-06-24T12:03:35.283Z,99490.25
2018-06-24T12:06:03.388Z,99490.58
2018-06-24T12:08:31.518Z,99488.83
2018-06-24T12:10:59.634Z,99485.57
2018-06-24T12:13:28.990Z,99479.91
2018-06-24T12:15:57.188Z,99482.80
2018-06-24T12:18:29.292Z,99485.01
2018-06-24T12:20:57.704Z,99494.95
2018-06-24T12:23:25.834Z,99487.39
2018-06-24T12:25:53.873Z,99494.89
2018-06-24T12:28:21.988Z,99489.77
2018-06-24T12:30:50.220Z,99484.59
2018-06-24T12:33:19.188Z,99483.77
2018-06-24T12:35:47.751Z,99472.60
2018-06-24T12:38:17.534Z,99500.70
2018-06-24T12:40:45.626Z,99479.84
2018-06-24T12:43:13.732Z,99480.52
2018-06-24T12:45:42.092Z,99471.37
2018-06-24T12:48:10.561Z,99472.83
2018-06-24T12:50:38.666Z,99471.16
2018-06-24T12:53:06.859Z,99463.44
2018-06-24T12:55:35.176Z,99473.81
2018-06-24T12:58:03.891Z,99481.75
2018-06-24T13:00:32.638Z,99474.42
2018-06-24T13:03:00.687Z,99470.67
2018-06-24T13:05:28.879Z,99442.65
2018-06-24T13:07:57.509Z,99469.37
2018-06-24T13:10:26.117Z,99469.99
2018-06-24T13:12:54.259Z,99476.98
2018-06-24T13:15:22.377Z,99469.40
2018-06-24T13:17:50.811Z,99475.77
2018-06-24T13:20:19.609Z,99467.22
2018-06-24T13:22:47.984Z,99483.89
2018-06-24T13:25:16.573Z,99473.95
2018-06-24T13:27:44.705Z,99462.16
2018-06-24T13:30:13.108Z,99460.58
2018-06-24T13:32:41.615Z,99463.61
2018-06-24T13:35:09.678Z,99465.48
2018-06-24T13:37:37.868Z,99462.78
2018-06-24T13:40:06.476Z,99454.99
2018-06-24T13:42:34.637Z,99458.85
2018-06-24T13:45:02.998Z,99448.16
2018-06-24T13:47:31.982Z,99414.86
2018-06-24T13:50:00.053Z,99445.92
2018-06-24T13:52:28.764Z,99454.08
2018-06-24T13:54:57.256Z,99450.34
2018-06-24T13:57:25.360Z,99449.47
2018-06-24T13:59:53.724Z,99451.78
2018-06-24T14:02:22.273Z,99444.56
2018-06-24T14:04:50.938Z,99402.89
2018-06-24T14:07:19.153Z,99468.48
2018-06-24T14:09:47.723Z,99452.70
2018-06-24T14:12:16.508Z,99445.82
2018-06-24T14:14:44.668Z,99452.22
2018-06-24T14:17:13.611Z,99457.63
2018-06-24T14:19:41.716Z,99452.91
2018-06-24T14:22:09.899Z,99456.52
2018-06-24T14:24:38.461Z,99456.05
2018-06-24T14:27:11.472Z,99459.57
2018-06-24T14:29:39.548Z,99466.25
2018-06-24T14:32:07.783Z,99468.95
2018-06-24T14:34:35.913Z,99465.45
2018-06-24T14:37:04.506Z,99462.62
2018-06-24T14:39:32.644Z,99465.06
2018-06-24T14:42:00.715Z,99459.13
2018-06-24T14:44:29.092Z,99456.51
2018-06-24T14:46:57.181Z,99470.37
2018-06-24T14:49:25.316Z,99469.83
2018-06-24T14:51:53.501Z,99468.86
2018-06-24T14:54:21.942Z,99472.80
2018-06-24T14:56:50.265Z,99467.80
2018-06-24T14:59:18.895Z,99459.84
2018-06-24T15:01:48.421Z,99461.95
2018-06-24T15:04:16.744Z,99459.42
2018-06-24T15:06:45.044Z,99464.48
2018-06-24T15:09:13.221Z,99460.10
2018-06-24T15:11:41.319Z,99460.45
2018-06-24T15:14:09.737Z,99460.00
2018-06-24T15:16:38.080Z,99418.90
2018-06-24T15:19:07.312Z,99461.42
2018-06-24T15:21:36.240Z,99446.14
2018-06-24T15:24:04.409Z,99449.73
2018-06-24T15:26:32.652Z,99443.25
2018-06-24T15:29:00.835Z,99407.14
2018-06-24T15:31:28.945Z,99435.64
2018-06-24T15:33:57.420Z,99436.95
2018-06-24T15:36:25.899Z,99442.23
2018-06-24T15:38:54.075Z,99461.19
2018-06-24T15:41:22.252Z,99436.60
2018-06-24T15:43:50.739Z,99434.03
2018-06-24T15:46:19.985Z,99434.59
2018-06-24T15:48:48.169Z,99436.17
2018-06-24T15:51:17.801Z,99427.30
2018-06-24T15:53:46.881Z,99436.94
2018-06-24T15:56:14.996Z,99434.33
2018-06-24T15:58:48.129Z,99449.98
2018-06-24T16:01:16.460Z,99440.79
2018-06-24T16:03:44.585Z,99443.94
2018-06-24T16:06:13.310Z,99439.23
2018-06-24T16:08:41.916Z,99443.55
2018-06-24T16:11:10.104Z,99447.02
2018-06-24T16:13:38.681Z,99447.45
2018-06-24T16:16:07.474Z,99435.44
2018-06-24T16:18:35.906Z,99439.17
2018-06-24T16:21:04.759Z,99439.32
2018-06-24T16:23:33.737Z,99436.28
2018-06-24T16:26:02.063Z,99424.80
2018-06-24T16:28:30.198Z,99438.84
2018-06-24T16:30:58.916Z,99440.67
2018-06-24T16:33:27.132Z,99426.14
2018-06-24T16:35:55.621Z,99431.52
2018-06-24T16:38:26.082Z,99433.06
2018-06-24T16:40:54.156Z,99427.43
2018-06-24T16:43:22.387Z,99434.08
2018-06-24T16:45:50.791Z,99370.93
2018-06-24T16:48:18.845Z,99439.75
2018-06-24T16:50:47.255Z,99394.53
2018-06-24T16:53:15.774Z,99379.75
2018-06-24T16:58:15.406Z,99166.75
2018-06-24T17:00:44.275Z,99404.89
2018-06-24T17:03:12.659Z,99433.50
2018-06-24T17:05:41.117Z,99438.61
2018-06-24T17:08:09.636Z,99443.33
2018-06-24T17:10:37.919Z,99447.02
2018-06-24T17:13:06.015Z,99455.38
2018-06-24T17:15:34.414Z,99430.98
2018-06-24T17:18:02.797Z,99451.70
2018-06-24T17:20:30.998Z,99446.98
2018-06-24T17:22:59.368Z,99449.92
2018-06-24T17:25:27.487Z,99452.09
2018-06-24T17:27:58.385Z,99441.39
2018-06-24T17:30:30.253Z,99448.03
2018-06-24T17:32:59.265Z,99452.63
2018-06-24T17:35:27.325Z,99453.92
2018-06-24T17:37:56.333Z,99341.75
2018-06-24T17:40:25.031Z,99453.77
2018-06-24T17:42:53.457Z,99459.80
2018-06-24T17:45:22.290Z,99451.61
2018-06-24T17:47:51.463Z,99444.48
2018-06-24T17:50:20.730Z,99449.33
2018-06-24T17:52:49.916Z,99430.95
2018-06-24T17:55:19.693Z,99407.95
2018-06-24T17:57:50.020Z,99439.50
2018-06-24T18:00:19.409Z,99451.49
2018-06-24T18:02:48.568Z,99441.91
2018-06-24T18:05:17.237Z,99420.45
2018-06-24T18:07:46.934Z,99448.82
2018-06-24T18:10:15.605Z,99445.98
2018-06-24T18:12:44.188Z,99444.98
2018-06-24T18:15:12.422Z,99443.30
2018-06-24T18:17:40.529Z,99435.75
2018-06-24T18:20:09.489Z,99439.45
2018-06-24T18:22:37.595Z,99433.95
2018-06-24T18:25:06.462Z,99429.12
2018-06-24T18:27:35.002Z,99422.97
2018-06-24T18:30:03.423Z,99437.64
2018-06-24T18:32:33.322Z,99438.05
2018-06-24T18:35:02.060Z,99440.56
2018-06-24T18:37:30.880Z,99335.45
2018-06-24T18:39:59.153Z,99441.08
2018-06-24T18:42:27.745Z,99445.44
2018-06-24T18:44:55.930Z,99445.55
2018-06-24T18:47:28.165Z,99442.22
2018-06-24T18:49:56.625Z,99433.68
2018-06-24T18:52:24.787Z,99450.05
2018-06-24T18:54:52.951Z,99449.34
2018-06-24T18:57:21.165Z,99433.62
2018-06-24T18:59:49.284Z,99449.83
2018-06-24T19:02:17.922Z,99469.04
2018-06-24T19:04:46.012Z,99442.94
2018-06-24T19:07:14.317Z,99446.23
2018-06-24T19:09:42.928Z,99449.91
2018-06-24T19:12:11.044Z,99448.89
2018-06-24T19:14:39.324Z,99447.97
2018-06-24T19:17:07.535Z,99450.38
2018-06-24T19:19:35.998Z,99453.30
2018-06-24T19:22:04.226Z,99454.44
2018-06-24T19:24:32.684Z,99454.59
2018-06-24T19:27:00.770Z,99444.50
2018-06-24T19:29:28.978Z,99347.45
2018-06-24T19:31:57.194Z,99450.08
2018-06-24T19:34:25.327Z,99452.77
2018-06-24T19:36:53.472Z,99448.70
2018-06-24T19:39:22.099Z,99457.39
2018-06-24T19:41:50.459Z,99449.37
2018-06-24T19:44:18.755Z,99454.98
2018-06-24T19:46:47.147Z,99456.11
2018-06-24T19:49:15.313Z,99454.05
2018-06-24T19:51:44.189Z,99459.39
2018-06-24T19:54:12.384Z,99464.61
2018-06-24T19:56:40.731Z,99460.67
2018-06-24T19:59:09.315Z,99468.70
2018-06-24T20:01:37.508Z,99447.74
2018-06-24T20:04:05.643Z,99461.17
2018-06-24T20:06:34.009Z,99464.73
2018-06-24T20:09:02.141Z,99445.17
2018-06-24T20:11:30.465Z,99447.86
2018-06-24T20:13:59.036Z,99464.25
2018-06-24T20:16:27.090Z,99464.49
2018-06-24T20:18:55.192Z,99456.20
2018-06-24T20:21:23.551Z,99457.48
2018-06-24T20:23:51.784Z,99432.32
2018-06-24T20:26:20.006Z,99460.05
2018-06-24T20:28:48.420Z,99448.67
2018-06-24T20:31:16.623Z,99450.70
2018-06-24T20:33:44.724Z,99471.73
2018-06-24T20:36:13.144Z,99453.50
2018-06-24T20:38:41.268Z,99431.74
2018-06-24T20:41:09.377Z,99450.43
2018-06-24T20:43:37.752Z,99450.82
2018-06-24T20:46:05.882Z,99459.35
2018-06-24T20:48:34.064Z,99426.99
2018-06-24T20:51:02.533Z,99453.77
2018-06-24T20:53:30.642Z,99452.22
2018-06-24T20:55:58.746Z,99401.91
2018-06-24T20:58:27.240Z,99457.32
2018-06-24T21:00:55.337Z,99452.96
2018-06-24T21:03:23.707Z,99434.78
2018-06-24T21:05:52.096Z,99448.98
2018-06-24T21:08:20.573Z,99455.22
2018-06-24T21:10:48.923Z,99454.98
2018-06-24T21:13:16.990Z,99455.38
2018-06-24T21:15:45.188Z,99456.27
2018-06-24T21:18:13.658Z,99462.15
2018-06-24T21:20:41.914Z,99446.39
2018-06-24T21:23:09.968Z,99461.38
2018-06-24T21:25:38.417Z,99464.80
2018-06-24T21:28:06.551Z,99460.72
2018-06-24T21:30:34.605Z,99455.22
2018-06-24T21:33:02.897Z,99462.73
2018-06-24T21:35:31.382Z,99455.42
2018-06-24T21:38:00.049Z,99450.78
2018-06-24T21:40:28.526Z,99453.20
2018-06-24T21:42:56.859Z,99452.34
2018-06-24T21:45:25.436Z,99457.28
2018-06-24T21:47:53.976Z,99456.77
2018-06-24T21:50:22.075Z,99436.92
2018-06-24T21:52:50.479Z,99446.93
2018-06-24T21:55:18.860Z,99396.54
2018-06-24T21:57:47.047Z,99457.12
2018-06-24T22:00:15.272Z,99434.23
2018-06-24T22:02:43.308Z,99426.29
2018-06-24T22:05:12.008Z,99412.97
2018-06-24T22:07:40.068Z,99439.25
2018-06-24T22:10:08.446Z,99442.88
2018-06-24T22:12:37.201Z,99443.30
2018-06-24T22:15:05.236Z,99445.22
2018-06-24T22:17:33.717Z,99437.81
2018-06-24T22:20:02.068Z,99446.23
2018-06-24T22:22:30.589Z,99438.21
2018-06-24T22:24:58.647Z,99439.11
2018-06-24T22:27:27.101Z,99445.06
2018-06-24T22:29:55.725Z,99446.34
2018-06-24T22:32:24.168Z,99444.70
2018-06-24T22:34:52.479Z,99447.01
2018-06-24T22:37:21.128Z,99444.20
2018-06-24T22:39:49.696Z,99446.77
2018-06-24T22:42:18.397Z,99445.10
2018-06-24T22:44:46.485Z,99446.39
2018-06-24T22:47:14.948Z,99450.51
2018-06-24T22:49:43.385Z,99447.55
2018-06-24T22:52:11.758Z,99439.50
2018-06-24T22:54:40.239Z,99445.34
2018-06-24T22:57:08.407Z,99426.91
2018-06-24T22:59:47.645Z,99444.44
2018-06-24T23:02:15.960Z,99446.73
2018-06-24T23:04:44.605Z,99449.53
2018-06-24T23:07:12.721Z,99402.48
2018-06-24T23:09:41.405Z,99442.88
2018-06-24T23:12:09.769Z,99443.63
2018-06-24T23:14:38.089Z,99422.03
2018-06-24T23:17:06.465Z,99440.30
2018-06-24T23:19:35.329Z,99442.59
2018-06-24T23:22:04.064Z,99440.93
2018-06-24T23:24:32.964Z,99440.45
2018-06-24T23:27:01.501Z,99437.89
2018-06-24T23:29:29.893Z,99440.45
2018-06-24T23:31:58.169Z,99438.94
2018-06-24T23:34:27.022Z,99435.36
2018-06-24T23:36:55.369Z,99437.89
2018-06-24T23:39:23.505Z,99391.19
2018-06-24T23:41:52.435Z,99439.80
2018-06-24T23:44:20.837Z,99433.02
2018-06-24T23:56:52.510Z,99394.04
2018-06-24T23:59:22.808Z,99430.16
